sensor_id;sensor_type;location;lat;lon;timestamp;P1;durP1;ratioP1;P2;durP2;ratioP2
32138;SDS011;18644;48.700;9.210;2024-02-21T00:01:39;5.72;;;2.80;;
32138;SDS011;18644;48.700;9.210;2024-02-21T00:04:06;4.35;;;2.30;;
32138;SDS011;18644;48.700;9.210;2024-02-21T00:06:33;5.05;;;2.35;;
32138;SDS011;18644;48.700;9.210;2024-02-21T00:08:59;4.38;;;2.28;;
32138;SDS011;18644;48.700;9.210;2024-02-21T00:11:28;4.80;;;2.53;;
32138;SDS011;18644;48.700;9.210;2024-02-21T00:13:55;5.30;;;2.40;;
32138;SDS011;18644;48.700;9.210;2024-02-21T00:16:21;3.53;;;2.20;;
32138;SDS011;18644;48.700;9.210;2024-02-21T00:18:49;4.20;;;2.35;;
32138;SDS011;18644;48.700;9.210;2024-02-21T00:21:16;6.05;;;2.60;;
32138;SDS011;18644;48.700;9.210;2024-02-21T00:23:43;4.53;;;2.13;;
32138;SDS011;18644;48.700;9.210;2024-02-21T00:26:11;10.80;;;2.60;;
32138;SDS011;18644;48.700;9.210;2024-02-21T00:28:38;7.38;;;2.92;;
32138;SDS011;18644;48.700;9.210;2024-02-21T00:31:05;6.68;;;2.80;;
32138;SDS011;18644;48.700;9.210;2024-02-21T00:33:32;7.03;;;2.47;;
32138;SDS011;18644;48.700;9.210;2024-02-21T00:36:00;5.72;;;2.35;;
32138;SDS011;18644;48.700;9.210;2024-02-21T00:38:27;3.05;;;2.10;;
32138;SDS011;18644;48.700;9.210;2024-02-21T00:40:54;5.57;;;2.45;;
32138;SDS011;18644;48.700;9.210;2024-02-21T00:43:20;5.90;;;2.55;;
32138;SDS011;18644;48.700;9.210;2024-02-21T00:45:48;4.95;;;2.75;;
32138;SDS011;18644;48.700;9.210;2024-02-21T00:48:15;4.60;;;2.58;;
32138;SDS011;18644;48.700;9.210;2024-02-21T00:50:42;5.50;;;2.20;;
32138;SDS011;18644;48.700;9.210;2024-02-21T00:53:10;4.80;;;2.63;;
32138;SDS011;18644;48.700;9.210;2024-02-21T00:55:37;5.78;;;2.30;;
32138;SDS011;18644;48.700;9.210;2024-02-21T00:58:05;7.70;;;2.33;;
32138;SDS011;18644;48.700;9.210;2024-02-21T01:00:32;7.90;;;2.75;;
32138;SDS011;18644;48.700;9.210;2024-02-21T01:02:58;5.10;;;2.40;;
32138;SDS011;18644;48.700;9.210;2024-02-21T01:05:25;4.18;;;2.50;;
32138;SDS011;18644;48.700;9.210;2024-02-21T01:07:54;7.47;;;2.33;;
32138;SDS011;18644;48.700;9.210;2024-02-21T01:10:22;7.13;;;2.58;;
32138;SDS011;18644;48.700;9.210;2024-02-21T01:12:49;6.80;;;2.65;;
32138;SDS011;18644;48.700;9.210;2024-02-21T01:15:16;5.57;;;2.25;;
32138;SDS011;18644;48.700;9.210;2024-02-21T01:17:42;4.78;;;2.53;;
32138;SDS011;18644;48.700;9.210;2024-02-21T01:20:09;8.15;;;3.03;;
32138;SDS011;18644;48.700;9.210;2024-02-21T01:22:37;5.85;;;2.00;;
32138;SDS011;18644;48.700;9.210;2024-02-21T01:25:04;5.07;;;2.63;;
32138;SDS011;18644;48.700;9.210;2024-02-21T01:27:34;5.25;;;2.33;;
32138;SDS011;18644;48.700;9.210;2024-02-21T01:30:00;9.63;;;3.10;;
32138;SDS011;18644;48.700;9.210;2024-02-21T01:32:27;5.30;;;1.92;;
32138;SDS011;18644;48.700;9.210;2024-02-21T01:34:54;4.25;;;2.08;;
32138;SDS011;18644;48.700;9.210;2024-02-21T01:37:21;6.65;;;2.80;;
32138;SDS011;18644;48.700;9.210;2024-02-21T01:39:48;7.03;;;2.75;;
32138;SDS011;18644;48.700;9.210;2024-02-21T01:42:15;7.10;;;2.63;;
32138;SDS011;18644;48.700;9.210;2024-02-21T01:44:43;8.40;;;3.30;;
32138;SDS011;18644;48.700;9.210;2024-02-21T01:47:10;6.43;;;2.65;;
32138;SDS011;18644;48.700;9.210;2024-02-21T01:49:38;5.18;;;2.53;;
32138;SDS011;18644;48.700;9.210;2024-02-21T01:52:06;5.75;;;2.40;;
32138;SDS011;18644;48.700;9.210;2024-02-21T01:54:33;6.78;;;2.50;;
32138;SDS011;18644;48.700;9.210;2024-02-21T01:57:01;8.07;;;3.08;;
32138;SDS011;18644;48.700;9.210;2024-02-21T01:59:28;6.88;;;2.40;;
32138;SDS011;18644;48.700;9.210;2024-02-21T02:01:56;5.00;;;2.33;;
32138;SDS011;18644;48.700;9.210;2024-02-21T02:04:24;5.28;;;2.20;;
32138;SDS011;18644;48.700;9.210;2024-02-21T02:06:52;8.57;;;3.10;;
32138;SDS011;18644;48.700;9.210;2024-02-21T02:09:21;6.32;;;2.53;;
32138;SDS011;18644;48.700;9.210;2024-02-21T02:11:48;7.45;;;2.80;;
32138;SDS011;18644;48.700;9.210;2024-02-21T02:14:15;7.50;;;2.67;;
32138;SDS011;18644;48.700;9.210;2024-02-21T02:16:42;5.35;;;2.20;;
32138;SDS011;18644;48.700;9.210;2024-02-21T02:19:13;6.18;;;2.38;;
32138;SDS011;18644;48.700;9.210;2024-02-21T02:21:42;5.35;;;2.00;;
32138;SDS011;18644;48.700;9.210;2024-02-21T02:24:19;5.60;;;2.40;;
32138;SDS011;18644;48.700;9.210;2024-02-21T02:26:47;4.45;;;2.65;;
32138;SDS011;18644;48.700;9.210;2024-02-21T02:29:13;5.35;;;2.00;;
32138;SDS011;18644;48.700;9.210;2024-02-21T02:31:41;3.65;;;2.35;;
32138;SDS011;18644;48.700;9.210;2024-02-21T02:34:08;8.88;;;2.05;;
32138;SDS011;18644;48.700;9.210;2024-02-21T02:36:35;5.50;;;2.80;;
32138;SDS011;18644;48.700;9.210;2024-02-21T02:39:02;7.78;;;2.50;;
32138;SDS011;18644;48.700;9.210;2024-02-21T02:41:30;6.15;;;2.20;;
32138;SDS011;18644;48.700;9.210;2024-02-21T02:43:57;2.72;;;1.73;;
32138;SDS011;18644;48.700;9.210;2024-02-21T02:46:24;5.90;;;2.22;;
32138;SDS011;18644;48.700;9.210;2024-02-21T02:48:51;5.07;;;2.15;;
32138;SDS011;18644;48.700;9.210;2024-02-21T02:51:18;6.00;;;2.28;;
32138;SDS011;18644;48.700;9.210;2024-02-21T02:53:45;4.38;;;1.77;;
32138;SDS011;18644;48.700;9.210;2024-02-21T02:56:14;5.20;;;2.13;;
32138;SDS011;18644;48.700;9.210;2024-02-21T02:58:43;5.53;;;1.90;;
32138;SDS011;18644;48.700;9.210;2024-02-21T03:01:10;3.38;;;1.95;;
32138;SDS011;18644;48.700;9.210;2024-02-21T03:03:36;5.25;;;1.98;;
32138;SDS011;18644;48.700;9.210;2024-02-21T03:06:03;5.85;;;1.90;;
32138;SDS011;18644;48.700;9.210;2024-02-21T03:08:30;3.28;;;1.67;;
32138;SDS011;18644;48.700;9.210;2024-02-21T03:10:59;3.65;;;1.90;;
32138;SDS011;18644;48.700;9.210;2024-02-21T03:13:26;7.88;;;2.38;;
32138;SDS011;18644;48.700;9.210;2024-02-21T03:15:54;3.22;;;1.98;;
32138;SDS011;18644;48.700;9.210;2024-02-21T03:18:21;2.45;;;1.70;;
32138;SDS011;18644;48.700;9.210;2024-02-21T03:20:47;4.53;;;1.80;;
32138;SDS011;18644;48.700;9.210;2024-02-21T03:23:14;3.83;;;2.22;;
32138;SDS011;18644;48.700;9.210;2024-02-21T03:25:41;4.88;;;1.90;;
32138;SDS011;18644;48.700;9.210;2024-02-21T03:28:08;3.38;;;1.95;;
32138;SDS011;18644;48.700;9.210;2024-02-21T03:30:35;4.50;;;1.85;;
32138;SDS011;18644;48.700;9.210;2024-02-21T03:33:02;3.67;;;1.60;;
32138;SDS011;18644;48.700;9.210;2024-02-21T03:35:29;6.25;;;2.17;;
32138;SDS011;18644;48.700;9.210;2024-02-21T03:37:57;5.20;;;1.98;;
32138;SDS011;18644;48.700;9.210;2024-02-21T03:40:23;6.35;;;2.22;;
32138;SDS011;18644;48.700;9.210;2024-02-21T03:42:50;4.55;;;2.00;;
32138;SDS011;18644;48.700;9.210;2024-02-21T03:45:17;5.03;;;1.77;;
32138;SDS011;18644;48.700;9.210;2024-02-21T03:47:44;4.47;;;1.90;;
32138;SDS011;18644;48.700;9.210;2024-02-21T03:50:12;5.07;;;2.08;;
32138;SDS011;18644;48.700;9.210;2024-02-21T03:52:39;3.35;;;1.70;;
32138;SDS011;18644;48.700;9.210;2024-02-21T03:55:06;8.32;;;2.33;;
32138;SDS011;18644;48.700;9.210;2024-02-21T03:57:34;3.63;;;1.73;;
32138;SDS011;18644;48.700;9.210;2024-02-21T04:00:01;5.57;;;2.25;;
32138;SDS011;18644;48.700;9.210;2024-02-21T04:02:28;2.92;;;1.40;;
32138;SDS011;18644;48.700;9.210;2024-02-21T04:04:55;3.15;;;1.80;;
32138;SDS011;18644;48.700;9.210;2024-02-21T04:07:23;4.30;;;2.15;;
32138;SDS011;18644;48.700;9.210;2024-02-21T04:09:50;5.88;;;2.00;;
32138;SDS011;18644;48.700;9.210;2024-02-21T04:12:17;3.75;;;1.90;;
32138;SDS011;18644;48.700;9.210;2024-02-21T04:14:44;4.88;;;1.75;;
32138;SDS011;18644;48.700;9.210;2024-02-21T04:17:11;3.05;;;1.80;;
32138;SDS011;18644;48.700;9.210;2024-02-21T04:19:38;5.93;;;2.10;;
32138;SDS011;18644;48.700;9.210;2024-02-21T04:22:04;2.13;;;1.50;;
32138;SDS011;18644;48.700;9.210;2024-02-21T04:24:33;7.18;;;1.77;;
32138;SDS011;18644;48.700;9.210;2024-02-21T04:26:59;3.78;;;1.92;;
32138;SDS011;18644;48.700;9.210;2024-02-21T04:29:26;5.97;;;1.95;;
32138;SDS011;18644;48.700;9.210;2024-02-21T04:31:53;7.55;;;2.45;;
32138;SDS011;18644;48.700;9.210;2024-02-21T04:34:20;2.50;;;1.63;;
32138;SDS011;18644;48.700;9.210;2024-02-21T04:36:47;5.30;;;1.77;;
32138;SDS011;18644;48.700;9.210;2024-02-21T04:39:14;7.07;;;1.70;;
32138;SDS011;18644;48.700;9.210;2024-02-21T04:41:42;7.68;;;1.55;;
32138;SDS011;18644;48.700;9.210;2024-02-21T04:44:09;5.78;;;2.15;;
32138;SDS011;18644;48.700;9.210;2024-02-21T04:46:36;5.65;;;1.40;;
32138;SDS011;18644;48.700;9.210;2024-02-21T04:49:02;4.47;;;1.67;;
32138;SDS011;18644;48.700;9.210;2024-02-21T04:51:29;5.93;;;1.63;;
32138;SDS011;18644;48.700;9.210;2024-02-21T04:53:56;3.15;;;1.63;;
32138;SDS011;18644;48.700;9.210;2024-02-21T04:56:23;7.68;;;2.35;;
32138;SDS011;18644;48.700;9.210;2024-02-21T04:58:51;3.92;;;1.75;;
32138;SDS011;18644;48.700;9.210;2024-02-21T05:01:18;3.35;;;2.08;;
32138;SDS011;18644;48.700;9.210;2024-02-21T05:03:45;5.15;;;1.42;;
32138;SDS011;18644;48.700;9.210;2024-02-21T05:06:12;5.85;;;1.85;;
32138;SDS011;18644;48.700;9.210;2024-02-21T05:08:39;6.30;;;2.00;;
32138;SDS011;18644;48.700;9.210;2024-02-21T05:11:06;6.45;;;1.63;;
32138;SDS011;18644;48.700;9.210;2024-02-21T05:13:33;3.83;;;1.60;;
32138;SDS011;18644;48.700;9.210;2024-02-21T05:16:01;2.97;;;1.90;;
32138;SDS011;18644;48.700;9.210;2024-02-21T05:18:29;5.13;;;2.08;;
32138;SDS011;18644;48.700;9.210;2024-02-21T05:20:55;5.22;;;1.42;;
32138;SDS011;18644;48.700;9.210;2024-02-21T05:23:22;3.50;;;1.77;;
32138;SDS011;18644;48.700;9.210;2024-02-21T05:25:49;3.38;;;1.77;;
32138;SDS011;18644;48.700;9.210;2024-02-21T05:28:16;4.93;;;1.83;;
32138;SDS011;18644;48.700;9.210;2024-02-21T05:30:43;5.03;;;1.90;;
32138;SDS011;18644;48.700;9.210;2024-02-21T05:33:11;2.70;;;1.60;;
32138;SDS011;18644;48.700;9.210;2024-02-21T05:35:46;3.85;;;1.70;;
32138;SDS011;18644;48.700;9.210;2024-02-21T05:38:13;4.03;;;1.95;;
32138;SDS011;18644;48.700;9.210;2024-02-21T05:40:40;2.42;;;1.45;;
32138;SDS011;18644;48.700;9.210;2024-02-21T05:43:07;3.83;;;1.63;;
32138;SDS011;18644;48.700;9.210;2024-02-21T05:45:34;3.70;;;1.75;;
32138;SDS011;18644;48.700;9.210;2024-02-21T05:48:02;6.13;;;1.73;;
32138;SDS011;18644;48.700;9.210;2024-02-21T05:50:31;2.67;;;1.58;;
32138;SDS011;18644;48.700;9.210;2024-02-21T05:52:58;4.15;;;1.88;;
32138;SDS011;18644;48.700;9.210;2024-02-21T05:55:25;3.63;;;1.50;;
32138;SDS011;18644;48.700;9.210;2024-02-21T05:57:53;4.07;;;2.15;;
32138;SDS011;18644;48.700;9.210;2024-02-21T06:00:20;5.85;;;2.25;;
32138;SDS011;18644;48.700;9.210;2024-02-21T06:02:47;3.70;;;1.50;;
32138;SDS011;18644;48.700;9.210;2024-02-21T06:05:14;3.35;;;1.60;;
32138;SDS011;18644;48.700;9.210;2024-02-21T06:07:43;6.97;;;2.38;;
32138;SDS011;18644;48.700;9.210;2024-02-21T06:10:09;5.43;;;1.48;;
32138;SDS011;18644;48.700;9.210;2024-02-21T06:12:36;7.28;;;1.80;;
32138;SDS011;18644;48.700;9.210;2024-02-21T06:15:04;6.10;;;1.95;;
32138;SDS011;18644;48.700;9.210;2024-02-21T06:17:32;5.65;;;2.17;;
32138;SDS011;18644;48.700;9.210;2024-02-21T06:19:58;6.18;;;2.28;;
32138;SDS011;18644;48.700;9.210;2024-02-21T06:22:25;7.13;;;2.03;;
32138;SDS011;18644;48.700;9.210;2024-02-21T06:24:53;7.65;;;2.80;;
32138;SDS011;18644;48.700;9.210;2024-02-21T06:27:20;3.25;;;2.03;;
32138;SDS011;18644;48.700;9.210;2024-02-21T06:29:47;3.63;;;2.00;;
32138;SDS011;18644;48.700;9.210;2024-02-21T06:32:14;2.63;;;1.75;;
32138;SDS011;18644;48.700;9.210;2024-02-21T06:34:41;7.43;;;1.80;;
32138;SDS011;18644;48.700;9.210;2024-02-21T06:37:08;5.72;;;1.90;;
32138;SDS011;18644;48.700;9.210;2024-02-21T06:39:35;4.50;;;2.00;;
32138;SDS011;18644;48.700;9.210;2024-02-21T06:42:07;4.90;;;1.83;;
32138;SDS011;18644;48.700;9.210;2024-02-21T06:44:34;5.60;;;2.03;;
32138;SDS011;18644;48.700;9.210;2024-02-21T06:47:05;5.28;;;2.60;;
32138;SDS011;18644;48.700;9.210;2024-02-21T06:49:32;5.97;;;1.70;;
32138;SDS011;18644;48.700;9.210;2024-02-21T06:51:59;3.47;;;1.75;;
32138;SDS011;18644;48.700;9.210;2024-02-21T06:54:26;4.00;;;2.05;;
32138;SDS011;18644;48.700;9.210;2024-02-21T06:56:53;8.63;;;2.35;;
32138;SDS011;18644;48.700;9.210;2024-02-21T06:59:21;5.68;;;2.38;;
32138;SDS011;18644;48.700;9.210;2024-02-21T07:01:49;4.45;;;2.47;;
32138;SDS011;18644;48.700;9.210;2024-02-21T07:04:20;4.65;;;2.30;;
32138;SDS011;18644;48.700;9.210;2024-02-21T07:06:47;2.95;;;1.80;;
32138;SDS011;18644;48.700;9.210;2024-02-21T07:09:14;7.38;;;1.70;;
32138;SDS011;18644;48.700;9.210;2024-02-21T07:11:41;5.57;;;1.98;;
32138;SDS011;18644;48.700;9.210;2024-02-21T07:14:08;3.63;;;1.98;;
32138;SDS011;18644;48.700;9.210;2024-02-21T07:16:36;5.70;;;2.10;;
32138;SDS011;18644;48.700;9.210;2024-02-21T07:19:03;6.35;;;2.20;;
32138;SDS011;18644;48.700;9.210;2024-02-21T07:21:30;7.65;;;1.90;;
32138;SDS011;18644;48.700;9.210;2024-02-21T07:23:56;5.20;;;1.77;;
32138;SDS011;18644;48.700;9.210;2024-02-21T07:26:23;2.97;;;1.60;;
32138;SDS011;18644;48.700;9.210;2024-02-21T07:28:50;5.00;;;2.08;;
32138;SDS011;18644;48.700;9.210;2024-02-21T07:31:17;3.60;;;1.60;;
32138;SDS011;18644;48.700;9.210;2024-02-21T07:33:45;3.60;;;1.77;;
32138;SDS011;18644;48.700;9.210;2024-02-21T07:36:12;5.95;;;1.77;;
32138;SDS011;18644;48.700;9.210;2024-02-21T07:38:41;5.07;;;2.00;;
32138;SDS011;18644;48.700;9.210;2024-02-21T07:41:08;5.47;;;1.83;;
32138;SDS011;18644;48.700;9.210;2024-02-21T07:43:35;13.93;;;2.20;;
32138;SDS011;18644;48.700;9.210;2024-02-21T07:46:01;6.68;;;2.22;;
32138;SDS011;18644;48.700;9.210;2024-02-21T07:48:29;4.65;;;1.70;;
32138;SDS011;18644;48.700;9.210;2024-02-21T07:50:57;4.03;;;1.60;;
32138;SDS011;18644;48.700;9.210;2024-02-21T07:53:24;4.63;;;2.08;;
32138;SDS011;18644;48.700;9.210;2024-02-21T07:55:51;5.90;;;1.70;;
32138;SDS011;18644;48.700;9.210;2024-02-21T07:58:18;4.68;;;1.67;;
32138;SDS011;18644;48.700;9.210;2024-02-21T08:00:45;5.30;;;1.65;;
32138;SDS011;18644;48.700;9.210;2024-02-21T08:03:12;4.32;;;1.75;;
32138;SDS011;18644;48.700;9.210;2024-02-21T08:05:40;7.43;;;1.75;;
32138;SDS011;18644;48.700;9.210;2024-02-21T08:08:08;2.83;;;1.63;;
32138;SDS011;18644;48.700;9.210;2024-02-21T08:10:35;5.93;;;1.90;;
32138;SDS011;18644;48.700;9.210;2024-02-21T08:13:02;6.70;;;1.98;;
32138;SDS011;18644;48.700;9.210;2024-02-21T08:15:29;3.47;;;1.90;;
32138;SDS011;18644;48.700;9.210;2024-02-21T08:17:56;3.72;;;1.73;;
32138;SDS011;18644;48.700;9.210;2024-02-21T08:20:26;2.88;;;1.50;;
32138;SDS011;18644;48.700;9.210;2024-02-21T08:22:53;5.60;;;1.75;;
32138;SDS011;18644;48.700;9.210;2024-02-21T08:25:21;5.18;;;1.88;;
32138;SDS011;18644;48.700;9.210;2024-02-21T08:27:48;4.53;;;2.17;;
32138;SDS011;18644;48.700;9.210;2024-02-21T08:30:16;6.50;;;1.75;;
32138;SDS011;18644;48.700;9.210;2024-02-21T08:32:44;6.47;;;2.10;;
32138;SDS011;18644;48.700;9.210;2024-02-21T08:35:11;3.08;;;1.60;;
32138;SDS011;18644;48.700;9.210;2024-02-21T08:37:37;4.03;;;1.63;;
32138;SDS011;18644;48.700;9.210;2024-02-21T08:40:05;5.28;;;1.85;;
32138;SDS011;18644;48.700;9.210;2024-02-21T08:42:35;7.78;;;2.47;;
32138;SDS011;18644;48.700;9.210;2024-02-21T08:45:02;6.82;;;2.38;;
32138;SDS011;18644;48.700;9.210;2024-02-21T08:47:30;2.35;;;1.27;;
32138;SDS011;18644;48.700;9.210;2024-02-21T08:49:57;6.63;;;1.83;;
32138;SDS011;18644;48.700;9.210;2024-02-21T08:52:24;3.92;;;2.03;;
32138;SDS011;18644;48.700;9.210;2024-02-21T08:54:51;4.03;;;2.00;;
32138;SDS011;18644;48.700;9.210;2024-02-21T08:57:18;5.57;;;2.03;;
32138;SDS011;18644;48.700;9.210;2024-02-21T08:59:47;6.45;;;2.08;;
32138;SDS011;18644;48.700;9.210;2024-02-21T09:02:13;3.35;;;1.50;;
32138;SDS011;18644;48.700;9.210;2024-02-21T09:04:42;5.03;;;1.75;;
32138;SDS011;18644;48.700;9.210;2024-02-21T09:07:09;5.32;;;2.10;;
32138;SDS011;18644;48.700;9.210;2024-02-21T09:09:36;5.22;;;2.00;;
32138;SDS011;18644;48.700;9.210;2024-02-21T09:12:05;4.82;;;1.80;;
32138;SDS011;18644;48.700;9.210;2024-02-21T09:14:33;4.20;;;1.90;;
32138;SDS011;18644;48.700;9.210;2024-02-21T09:17:01;4.18;;;1.65;;
32138;SDS011;18644;48.700;9.210;2024-02-21T09:19:28;4.28;;;1.83;;
32138;SDS011;18644;48.700;9.210;2024-02-21T09:21:55;3.72;;;1.80;;
32138;SDS011;18644;48.700;9.210;2024-02-21T09:24:22;4.10;;;1.35;;
32138;SDS011;18644;48.700;9.210;2024-02-21T09:26:49;6.63;;;1.70;;
32138;SDS011;18644;48.700;9.210;2024-02-21T09:29:16;4.35;;;1.90;;
32138;SDS011;18644;48.700;9.210;2024-02-21T09:31:43;9.35;;;1.75;;
32138;SDS011;18644;48.700;9.210;2024-02-21T09:34:12;6.03;;;1.65;;
32138;SDS011;18644;48.700;9.210;2024-02-21T09:36:38;7.40;;;2.05;;
32138;SDS011;18644;48.700;9.210;2024-02-21T09:39:05;6.43;;;2.05;;
32138;SDS011;18644;48.700;9.210;2024-02-21T09:41:32;3.97;;;1.52;;
32138;SDS011;18644;48.700;9.210;2024-02-21T09:44:07;4.18;;;1.75;;
32138;SDS011;18644;48.700;9.210;2024-02-21T09:46:45;4.03;;;1.55;;
32138;SDS011;18644;48.700;9.210;2024-02-21T09:49:23;6.50;;;2.30;;
32138;SDS011;18644;48.700;9.210;2024-02-21T09:51:57;4.85;;;1.67;;
32138;SDS011;18644;48.700;9.210;2024-02-21T09:54:28;4.18;;;1.50;;
32138;SDS011;18644;48.700;9.210;2024-02-21T09:56:55;3.05;;;1.80;;
32138;SDS011;18644;48.700;9.210;2024-02-21T09:59:23;3.95;;;1.50;;
32138;SDS011;18644;48.700;9.210;2024-02-21T10:01:51;3.15;;;1.58;;
32138;SDS011;18644;48.700;9.210;2024-02-21T10:04:18;4.57;;;1.85;;
32138;SDS011;18644;48.700;9.210;2024-02-21T10:06:48;4.25;;;1.83;;
32138;SDS011;18644;48.700;9.210;2024-02-21T10:09:21;4.93;;;1.92;;
32138;SDS011;18644;48.700;9.210;2024-02-21T10:11:49;5.13;;;1.60;;
32138;SDS011;18644;48.700;9.210;2024-02-21T10:14:16;1.60;;;1.27;;
32138;SDS011;18644;48.700;9.210;2024-02-21T10:16:44;7.43;;;2.03;;
32138;SDS011;18644;48.700;9.210;2024-02-21T10:19:16;5.18;;;1.40;;
32138;SDS011;18644;48.700;9.210;2024-02-21T10:21:57;2.13;;;1.07;;
32138;SDS011;18644;48.700;9.210;2024-02-21T10:24:30;2.42;;;1.20;;
32138;SDS011;18644;48.700;9.210;2024-02-21T10:27:01;2.10;;;1.00;;
32138;SDS011;18644;48.700;9.210;2024-02-21T10:29:29;3.72;;;1.38;;
32138;SDS011;18644;48.700;9.210;2024-02-21T10:32:03;2.08;;;1.10;;
32138;SDS011;18644;48.700;9.210;2024-02-21T10:34:32;3.63;;;1.13;;
32138;SDS011;18644;48.700;9.210;2024-02-21T10:37:01;5.55;;;1.48;;
32138;SDS011;18644;48.700;9.210;2024-02-21T10:39:28;3.55;;;1.20;;
32138;SDS011;18644;48.700;9.210;2024-02-21T10:41:56;1.52;;;1.23;;
32138;SDS011;18644;48.700;9.210;2024-02-21T10:44:28;3.17;;;1.25;;
32138;SDS011;18644;48.700;9.210;2024-02-21T10:46:56;2.78;;;1.42;;
32138;SDS011;18644;48.700;9.210;2024-02-21T10:49:24;3.50;;;1.13;;
32138;SDS011;18644;48.700;9.210;2024-02-21T10:51:54;2.75;;;1.40;;
32138;SDS011;18644;48.700;9.210;2024-02-21T10:54:34;3.28;;;1.10;;
32138;SDS011;18644;48.700;9.210;2024-02-21T10:57:11;2.72;;;0.90;;
32138;SDS011;18644;48.700;9.210;2024-02-21T10:59:39;3.08;;;1.38;;
32138;SDS011;18644;48.700;9.210;2024-02-21T11:02:06;1.83;;;1.00;;
32138;SDS011;18644;48.700;9.210;2024-02-21T11:04:34;1.30;;;0.90;;
32138;SDS011;18644;48.700;9.210;2024-02-21T11:07:02;3.53;;;1.05;;
32138;SDS011;18644;48.700;9.210;2024-02-21T11:09:32;2.80;;;1.20;;
32138;SDS011;18644;48.700;9.210;2024-02-21T11:12:01;1.48;;;0.90;;
32138;SDS011;18644;48.700;9.210;2024-02-21T11:14:30;2.33;;;1.10;;
32138;SDS011;18644;48.700;9.210;2024-02-21T11:17:00;4.00;;;1.33;;
32138;SDS011;18644;48.700;9.210;2024-02-21T11:19:29;3.33;;;1.35;;
32138;SDS011;18644;48.700;9.210;2024-02-21T11:21:56;3.83;;;1.05;;
32138;SDS011;18644;48.700;9.210;2024-02-21T11:24:26;2.08;;;1.00;;
32138;SDS011;18644;48.700;9.210;2024-02-21T11:26:56;1.33;;;0.93;;
32138;SDS011;18644;48.700;9.210;2024-02-21T11:29:39;4.68;;;1.02;;
32138;SDS011;18644;48.700;9.210;2024-02-21T11:32:09;1.52;;;0.90;;
32138;SDS011;18644;48.700;9.210;2024-02-21T11:34:37;1.55;;;0.80;;
32138;SDS011;18644;48.700;9.210;2024-02-21T11:37:12;3.25;;;1.00;;
32138;SDS011;18644;48.700;9.210;2024-02-21T11:39:41;1.60;;;1.00;;
32138;SDS011;18644;48.700;9.210;2024-02-21T11:42:10;2.03;;;0.98;;
32138;SDS011;18644;48.700;9.210;2024-02-21T11:44:37;2.28;;;1.02;;
32138;SDS011;18644;48.700;9.210;2024-02-21T11:47:07;4.10;;;0.90;;
32138;SDS011;18644;48.700;9.210;2024-02-21T11:49:36;2.63;;;1.10;;
32138;SDS011;18644;48.700;9.210;2024-02-21T11:52:05;1.75;;;1.10;;
32138;SDS011;18644;48.700;9.210;2024-02-21T11:54:32;1.33;;;1.00;;
32138;SDS011;18644;48.700;9.210;2024-02-21T11:57:00;2.42;;;0.90;;
32138;SDS011;18644;48.700;9.210;2024-02-21T11:59:32;1.40;;;0.90;;
32138;SDS011;18644;48.700;9.210;2024-02-21T12:01:59;2.58;;;0.90;;
32138;SDS011;18644;48.700;9.210;2024-02-21T12:04:28;1.65;;;1.00;;
32138;SDS011;18644;48.700;9.210;2024-02-21T12:06:56;1.42;;;1.08;;
32138;SDS011;18644;48.700;9.210;2024-02-21T12:09:24;2.60;;;1.00;;
32138;SDS011;18644;48.700;9.210;2024-02-21T12:11:58;1.63;;;0.90;;
32138;SDS011;18644;48.700;9.210;2024-02-21T12:14:27;2.35;;;0.90;;
32138;SDS011;18644;48.700;9.210;2024-02-21T12:16:57;1.63;;;0.77;;
32138;SDS011;18644;48.700;9.210;2024-02-21T12:19:25;3.22;;;1.15;;
32138;SDS011;18644;48.700;9.210;2024-02-21T12:21:52;1.05;;;0.82;;
32138;SDS011;18644;48.700;9.210;2024-02-21T12:24:22;2.80;;;0.85;;
32138;SDS011;18644;48.700;9.210;2024-02-21T12:26:50;1.00;;;0.90;;
32138;SDS011;18644;48.700;9.210;2024-02-21T12:29:18;2.60;;;0.98;;
32138;SDS011;18644;48.700;9.210;2024-02-21T12:31:45;3.67;;;1.15;;
32138;SDS011;18644;48.700;9.210;2024-02-21T12:34:14;2.35;;;1.00;;
32138;SDS011;18644;48.700;9.210;2024-02-21T12:36:41;2.95;;;0.93;;
32138;SDS011;18644;48.700;9.210;2024-02-21T12:39:09;1.98;;;1.23;;
32138;SDS011;18644;48.700;9.210;2024-02-21T12:41:37;1.67;;;0.90;;
32138;SDS011;18644;48.700;9.210;2024-02-21T12:44:05;2.33;;;1.08;;
32138;SDS011;18644;48.700;9.210;2024-02-21T12:46:33;1.73;;;0.90;;
32138;SDS011;18644;48.700;9.210;2024-02-21T12:49:00;0.75;;;0.70;;
32138;SDS011;18644;48.700;9.210;2024-02-21T12:51:28;1.88;;;1.05;;
32138;SDS011;18644;48.700;9.210;2024-02-21T12:53:55;2.22;;;0.88;;
32138;SDS011;18644;48.700;9.210;2024-02-21T12:56:22;4.00;;;0.80;;
32138;SDS011;18644;48.700;9.210;2024-02-21T12:58:51;2.15;;;1.10;;
32138;SDS011;18644;48.700;9.210;2024-02-21T13:01:18;4.78;;;1.05;;
32138;SDS011;18644;48.700;9.210;2024-02-21T13:03:45;1.55;;;0.75;;
32138;SDS011;18644;48.700;9.210;2024-02-21T13:06:12;2.10;;;0.93;;
32138;SDS011;18644;48.700;9.210;2024-02-21T13:08:40;0.88;;;0.77;;
32138;SDS011;18644;48.700;9.210;2024-02-21T13:11:09;1.70;;;0.85;;
32138;SDS011;18644;48.700;9.210;2024-02-21T13:13:36;1.83;;;0.80;;
32138;SDS011;18644;48.700;9.210;2024-02-21T13:16:03;1.17;;;0.85;;
32138;SDS011;18644;48.700;9.210;2024-02-21T13:18:31;2.70;;;0.80;;
32138;SDS011;18644;48.700;9.210;2024-02-21T13:20:58;4.78;;;0.80;;
32138;SDS011;18644;48.700;9.210;2024-02-21T13:23:25;2.72;;;0.90;;
32138;SDS011;18644;48.700;9.210;2024-02-21T13:25:54;0.75;;;0.75;;
32138;SDS011;18644;48.700;9.210;2024-02-21T13:28:21;1.70;;;0.80;;
32138;SDS011;18644;48.700;9.210;2024-02-21T13:30:47;2.97;;;0.82;;
32138;SDS011;18644;48.700;9.210;2024-02-21T13:33:14;1.27;;;0.85;;
32138;SDS011;18644;48.700;9.210;2024-02-21T13:35:42;2.13;;;0.77;;
32138;SDS011;18644;48.700;9.210;2024-02-21T13:38:09;0.95;;;0.60;;
32138;SDS011;18644;48.700;9.210;2024-02-21T13:40:36;1.88;;;0.70;;
32138;SDS011;18644;48.700;9.210;2024-02-21T13:43:05;2.67;;;0.75;;
32138;SDS011;18644;48.700;9.210;2024-02-21T13:45:32;1.30;;;0.60;;
32138;SDS011;18644;48.700;9.210;2024-02-21T13:48:00;1.42;;;0.70;;
32138;SDS011;18644;48.700;9.210;2024-02-21T13:50:29;1.05;;;0.77;;
32138;SDS011;18644;48.700;9.210;2024-02-21T13:52:57;1.63;;;0.80;;
32138;SDS011;18644;48.700;9.210;2024-02-21T13:55:24;0.70;;;0.60;;
32138;SDS011;18644;48.700;9.210;2024-02-21T13:57:52;0.80;;;0.70;;
32138;SDS011;18644;48.700;9.210;2024-02-21T14:00:20;1.83;;;0.65;;
32138;SDS011;18644;48.700;9.210;2024-02-21T14:02:47;2.17;;;0.70;;
32138;SDS011;18644;48.700;9.210;2024-02-21T14:05:14;1.25;;;0.68;;
32138;SDS011;18644;48.700;9.210;2024-02-21T14:07:41;0.60;;;0.60;;
32138;SDS011;18644;48.700;9.210;2024-02-21T14:10:08;1.45;;;0.80;;
32138;SDS011;18644;48.700;9.210;2024-02-21T14:12:35;1.92;;;1.08;;
32138;SDS011;18644;48.700;9.210;2024-02-21T14:15:03;0.90;;;0.80;;
32138;SDS011;18644;48.700;9.210;2024-02-21T14:17:32;1.50;;;1.10;;
32138;SDS011;18644;48.700;9.210;2024-02-21T14:19:59;1.40;;;0.75;;
32138;SDS011;18644;48.700;9.210;2024-02-21T14:22:26;2.05;;;0.85;;
32138;SDS011;18644;48.700;9.210;2024-02-21T14:24:53;2.25;;;0.75;;
32138;SDS011;18644;48.700;9.210;2024-02-21T14:27:21;1.52;;;0.77;;
32138;SDS011;18644;48.700;9.210;2024-02-21T14:29:48;1.73;;;0.70;;
32138;SDS011;18644;48.700;9.210;2024-02-21T14:32:15;2.70;;;0.70;;
32138;SDS011;18644;48.700;9.210;2024-02-21T14:34:43;1.70;;;0.70;;
32138;SDS011;18644;48.700;9.210;2024-02-21T14:37:10;2.85;;;0.98;;
32138;SDS011;18644;48.700;9.210;2024-02-21T14:39:37;1.42;;;0.70;;
32138;SDS011;18644;48.700;9.210;2024-02-21T14:42:05;3.38;;;0.93;;
32138;SDS011;18644;48.700;9.210;2024-02-21T14:44:34;2.13;;;0.80;;
32138;SDS011;18644;48.700;9.210;2024-02-21T14:47:02;1.95;;;1.05;;
32138;SDS011;18644;48.700;9.210;2024-02-21T14:49:29;2.83;;;0.95;;
32138;SDS011;18644;48.700;9.210;2024-02-21T14:51:57;1.30;;;0.90;;